Terminal Aerodrome Forecast
Issued by NWS Mt. Holly, NJ

Home | Current Version | Previous Version | Text Only | Print | Product List | Glossary On
Versions: 1 2 3 4 5 6 7 8 9 10 11 12 13 14 15 16 17 18 19 20
000
FTUS41 KPHI 010500
TAFILG
TAF
KILG 010539Z 0106/0206 06006KT P6SM BKN015
      TEMPO 0106/0108 SCT015 BKN090
     FM011000 03006KT 6SM BR OVC006
     FM011400 03008KT P6SM BKN015
     FM011700 03008KT P6SM SCT015 BKN040
     FM020000 05006KT P6SM SCT040
     FM020500 03005KT P6SM SCT007=

USA.gov is the U.S. government's official web portal to all federal, state and local government web resources and services.